Time;durP1;ratioP1;P1;durP2;ratioP2;P2;SDS_P1;SDS_P2;PMS_P1;PMS_P2;Temp;Humidity;BMP_temperature;BMP_pressure;BME280_temperature;BME280_humidity;BME280_pressure;Samples;Min_cycle;Max_cycle;Signal;HPM_P1;HPM_P2
2022/10/11 00:00:24;;;;;;;3.50;1.65;;;;;;;22.33;42.55;102327.75;5000779;28;20095;-70
2022/10/11 00:02:49;;;;;;;2.33;1.50;;;;;;;22.34;42.68;102335.56;5001038;28;20068;-70
2022/10/11 00:05:15;;;;;;;2.95;1.70;;;;;;;22.30;42.77;102340.34;5016638;28;20124;-68
2022/10/11 00:07:41;;;;;;;2.35;1.42;;;;;;;22.34;42.55;102342.69;4956062;28;20037;-68
2022/10/11 00:10:08;;;;;;;2.97;1.73;;;;;;;22.34;43.00;102348.00;5016566;28;20495;-68
2022/10/11 00:12:34;;;;;;;3.08;1.88;;;;;;;22.33;42.59;102349.81;5013897;28;20599;-70
2022/10/11 00:15:00;;;;;;;3.90;1.60;;;;;;;22.29;42.84;102348.47;5016786;28;20045;-70
2022/10/11 00:17:26;;;;;;;5.95;1.77;;;;;;;22.26;42.97;102348.78;5015442;28;20040;-71
2022/10/11 00:19:51;;;;;;;2.65;1.52;;;;;;;22.25;42.82;102353.25;5016599;28;20029;-70
2022/10/11 00:22:17;;;;;;;2.50;1.63;;;;;;;22.28;42.86;102354.78;5014395;28;20044;-70
2022/10/11 00:24:42;;;;;;;5.55;1.70;;;;;;;22.27;42.92;102353.94;4988503;28;20106;-68
2022/10/11 00:27:08;;;;;;;2.55;1.60;;;;;;;22.27;42.81;102361.91;5011956;28;20049;-68
2022/10/11 00:29:33;;;;;;;1.98;1.70;;;;;;;22.24;43.10;102351.59;5012393;28;20040;-68
2022/10/11 00:31:59;;;;;;;2.15;1.48;;;;;;;22.25;43.02;102357.72;5006971;28;20714;-68
2022/10/11 00:34:25;;;;;;;2.25;1.42;;;;;;;22.25;42.96;102363.84;5013100;28;20042;-68
2022/10/11 00:36:50;;;;;;;2.53;1.50;;;;;;;22.23;42.84;102360.53;5009162;28;20040;-69
2022/10/11 00:39:16;;;;;;;2.13;1.48;;;;;;;22.22;42.92;102358.88;4996158;28;20056;-69
2022/10/11 00:41:41;;;;;;;2.22;1.52;;;;;;;22.21;42.79;102359.88;4996312;28;20049;-70
2022/10/11 00:44:17;;;;;;;1.90;1.58;;;;;;;22.23;42.79;102367.66;5010507;28;20109;-70
2022/10/11 00:47:11;;;;;;;3.50;1.70;;;;;;;22.21;42.86;102370.47;5010675;28;20033;-70
2022/10/11 00:49:44;;;;;;;2.42;1.52;;;;;;;22.19;42.83;102366.31;5004628;28;20127;-69
2022/10/11 00:52:37;;;;;;;2.83;1.58;;;;;;;22.20;42.99;102363.50;4993648;28;20064;-70
2022/10/11 00:55:11;;;;;;;3.67;1.60;;;;;;;22.19;43.08;102371.63;5003315;28;20049;-70
2022/10/11 00:57:42;;;;;;;2.97;1.67;;;;;;;22.20;42.78;102365.34;4970634;28;20045;-69
2022/10/11 01:00:11;;;;;;;2.17;1.30;;;;;;;22.21;42.83;102367.81;5007019;28;20038;-68
2022/10/11 01:02:38;;;;;;;2.58;1.40;;;;;;;22.21;42.83;102372.31;5008755;28;20036;-68
2022/10/11 01:05:05;;;;;;;2.55;1.70;;;;;;;22.18;42.94;102373.44;5011683;28;20395;-68
2022/10/11 01:07:32;;;;;;;2.47;1.50;;;;;;;22.18;42.73;102377.94;5006852;28;20132;-68
2022/10/11 01:09:57;;;;;;;3.65;1.80;;;;;;;22.19;42.79;102380.41;5011119;28;20443;-69
2022/10/11 01:12:26;;;;;;;1.60;1.23;;;;;;;22.17;43.08;102371.78;4994740;28;20052;-69
2022/10/11 01:15:04;;;;;;;2.58;1.35;;;;;;;22.15;43.03;102373.78;4978892;28;20045;-68
2022/10/11 01:17:52;;;;;;;3.10;1.98;;;;;;;22.16;43.02;102372.78;5012621;28;20041;-68
2022/10/11 01:20:31;;;;;;;2.58;1.63;;;;;;;22.16;43.13;102380.75;5006874;28;20045;-68
2022/10/11 01:23:17;;;;;;;2.80;1.48;;;;;;;22.15;43.14;102379.09;5007812;28;20068;-68
2022/10/11 01:26:11;;;;;;;2.05;1.30;;;;;;;22.15;43.02;102384.38;5006407;28;20049;-68
2022/10/11 01:29:11;;;;;;;2.50;1.10;;;;;;;22.16;42.89;102390.53;4995135;28;20491;-68
2022/10/11 01:31:45;;;;;;;;;;;;;;;22.14;42.87;102376.59;5011117;28;20778;-68
2022/10/11 01:34:24;;;;;;;2.85;1.50;;;;;;;22.15;42.81;102384.38;5009647;28;19925;-68
2022/10/11 01:37:09;;;;;;;1.42;1.05;;;;;;;22.11;42.81;102391.00;5009328;28;20083;-68
2022/10/11 01:39:42;;;;;;;2.63;1.70;;;;;;;22.13;42.80;102393.50;5013251;28;20064;-68
2022/10/11 01:42:11;;;;;;;1.88;1.15;;;;;;;22.08;43.29;102395.75;5008742;28;20093;-68
2022/10/11 01:44:39;;;;;;;3.38;1.80;;;;;;;22.08;43.27;102401.06;4990950;28;20033;-68
2022/10/11 01:47:05;;;;;;;2.83;1.60;;;;;;;22.11;43.15;102398.13;4998135;28;20037;-68
2022/10/11 01:49:30;;;;;;;1.73;1.15;;;;;;;22.12;42.76;102402.44;5008342;28;20046;-68
2022/10/11 01:51:59;;;;;;;2.22;1.38;;;;;;;22.09;42.96;102402.75;5013311;28;20057;-68
2022/10/11 01:54:31;;;;;;;2.83;1.50;;;;;;;22.09;42.96;102408.91;5007506;28;21410;-68
2022/10/11 01:57:18;;;;;;;1.98;0.98;;;;;;;22.08;43.04;102406.38;5008904;28;20060;-68
2022/10/11 02:00:02;;;;;;;2.42;1.20;;;;;;;22.09;42.74;102413.38;5013105;28;20076;-68
2022/10/11 02:02:57;;;;;;;2.10;1.08;;;;;;;22.10;42.84;102409.75;4996112;28;20056;-68
2022/10/11 02:05:26;;;;;;;1.48;1.00;;;;;;;22.07;43.00;102410.03;5009529;28;20140;-68
2022/10/11 02:08:01;;;;;;;2.17;0.93;;;;;;;22.08;43.06;102411.69;5006954;28;20042;-68
2022/10/11 02:10:32;;;;;;;2.15;1.27;;;;;;;22.09;43.16;102421.34;5006541;28;20124;-68
2022/10/11 02:13:08;;;;;;;3.00;1.55;;;;;;;22.08;43.20;102417.00;5009212;28;20080;-68
2022/10/11 02:15:38;;;;;;;2.55;1.40;;;;;;;22.08;42.93;102417.00;5010663;28;20790;-69
2022/10/11 02:18:08;;;;;;;2.80;1.23;;;;;;;22.07;42.83;102410.03;5008027;28;20113;-68
2022/10/11 02:20:38;;;;;;;2.35;0.95;;;;;;;22.04;42.78;102419.09;4985720;28;20083;-71
2022/10/11 02:23:10;;;;;;;3.30;1.50;;;;;;;22.06;43.27;102411.84;5008555;28;20033;-71
2022/10/11 02:25:36;;;;;;;3.88;1.38;;;;;;;22.03;42.93;102417.44;5010658;28;20026;-70
2022/10/11 02:28:10;;;;;;;2.00;1.23;;;;;;;22.02;43.08;102418.44;5009807;28;20107;-71
2022/10/11 02:30:37;;;;;;;1.23;1.05;;;;;;;22.00;43.24;102420.41;5010664;28;20037;-71
2022/10/11 02:33:06;;;;;;;2.65;1.33;;;;;;;21.97;42.92;102429.50;4993385;28;20147;-71
2022/10/11 02:35:38;;;;;;;2.28;1.10;;;;;;;22.02;43.02;102426.38;4984439;28;21283;-71
2022/10/11 02:38:10;;;;;;;1.33;1.23;;;;;;;22.01;42.78;102427.38;5016842;28;20052;-71
2022/10/11 02:40:40;;;;;;;2.08;1.15;;;;;;;21.97;43.12;102420.72;5007446;28;20578;-71
2022/10/11 02:43:31;;;;;;;2.13;1.35;;;;;;;22.01;42.92;102428.19;5015342;28;20856;-71
2022/10/11 02:45:59;;;;;;;2.00;1.13;;;;;;;22.00;43.07;102428.38;5015029;28;20144;-71
2022/10/11 02:48:28;;;;;;;1.83;0.80;;;;;;;21.97;43.20;102432.16;5012682;28;20033;-71
2022/10/11 02:50:55;;;;;;;2.40;1.30;;;;;;;21.98;43.28;102435.66;4986934;28;21436;-71
2022/10/11 02:53:23;;;;;;;1.83;1.00;;;;;;;21.97;42.90;102439.28;5015872;28;20041;-71
2022/10/11 02:55:50;;;;;;;1.58;1.30;;;;;;;21.97;43.13;102429.50;5016082;28;20111;-71
2022/10/11 02:58:16;;;;;;;3.15;1.50;;;;;;;21.97;42.87;102434.81;5014414;28;20030;-71
2022/10/11 03:00:41;;;;;;;2.05;1.30;;;;;;;21.94;42.93;102429.81;5013108;28;20044;-71
2022/10/11 03:03:07;;;;;;;3.00;1.33;;;;;;;21.97;43.21;102434.81;5013083;28;20045;-71
2022/10/11 03:05:39;;;;;;;2.00;1.17;;;;;;;21.98;43.27;102440.94;5011905;28;20071;-71
2022/10/11 03:08:05;;;;;;;1.92;1.33;;;;;;;21.96;43.06;102432.31;4987216;28;20097;-72
2022/10/11 03:10:32;;;;;;;3.83;1.65;;;;;;;21.93;43.25;102438.78;5011631;28;22433;-72
2022/10/11 03:12:58;;;;;;;2.28;1.33;;;;;;;21.95;43.29;102444.75;5015565;28;20077;-72
2022/10/11 03:15:23;;;;;;;2.55;1.35;;;;;;;21.94;43.24;102437.78;5014881;28;20990;-72
2022/10/11 03:17:49;;;;;;;1.98;1.17;;;;;;;21.92;43.38;102442.41;5011988;28;20061;-72
2022/10/11 03:20:14;;;;;;;2.25;1.38;;;;;;;21.95;42.99;102449.22;5014750;28;20029;-72
2022/10/11 03:22:40;;;;;;;1.13;0.90;;;;;;;21.93;42.94;102446.72;4985652;28;20069;-72
2022/10/11 03:25:06;;;;;;;1.55;0.90;;;;;;;21.94;43.23;102444.91;5013257;28;20176;-66
2022/10/11 03:27:33;;;;;;;2.17;1.10;;;;;;;21.91;42.89;102448.69;4999549;28;20030;-66
2022/10/11 03:29:59;;;;;;;2.58;1.17;;;;;;;21.95;42.99;102444.75;5014144;28;20522;-66
2022/10/11 03:32:24;;;;;;;2.55;1.15;;;;;;;21.91;43.04;102445.22;5016529;28;20053;-66
2022/10/11 03:34:50;;;;;;;1.75;0.82;;;;;;;21.87;43.32;102441.19;5019339;28;20313;-66
2022/10/11 03:37:15;;;;;;;1.42;0.88;;;;;;;21.88;42.64;102449.00;5023272;28;20041;-66
2022/10/11 03:39:41;;;;;;;2.90;1.20;;;;;;;21.83;43.14;102445.97;4995535;28;20505;-66
2022/10/11 03:42:06;;;;;;;1.48;1.05;;;;;;;21.88;43.13;102450.81;5011033;28;20778;-66
2022/10/11 03:44:32;;;;;;;1.23;1.10;;;;;;;21.86;43.20;102455.44;4997728;28;20044;-66
2022/10/11 03:46:57;;;;;;;2.17;1.55;;;;;;;21.86;43.10;102455.44;5011667;28;20123;-66
2022/10/11 03:49:23;;;;;;;2.25;1.02;;;;;;;21.85;43.18;102454.59;4999955;28;20041;-66
2022/10/11 03:51:49;;;;;;;1.67;0.88;;;;;;;21.86;43.14;102455.44;5014527;28;20174;-66
2022/10/11 03:54:14;;;;;;;2.53;1.23;;;;;;;21.86;43.29;102458.09;4996929;28;20033;-66
2022/10/11 03:56:40;;;;;;;1.60;1.00;;;;;;;21.87;43.19;102463.25;4998773;28;20748;-66
2022/10/11 03:59:05;;;;;;;2.78;1.20;;;;;;;21.81;43.37;102466.50;5012462;28;20049;-68
2022/10/11 04:01:36;;;;;;;1.88;1.27;;;;;;;21.80;43.09;102464.00;4997745;28;20098;-67
2022/10/11 04:04:01;;;;;;;0.90;0.77;;;;;;;21.81;43.25;102468.34;5013251;28;20053;-67
2022/10/11 04:06:27;;;;;;;1.27;0.77;;;;;;;21.80;43.11;102472.81;5010808;28;20474;-66
2022/10/11 04:08:52;;;;;;;1.90;0.95;;;;;;;21.80;43.08;102470.16;5010226;28;20041;-67
2022/10/11 04:11:18;;;;;;;1.55;1.10;;;;;;;21.84;43.28;102473.31;4986958;28;20044;-67
2022/10/11 04:13:43;;;;;;;1.75;0.95;;;;;;;21.83;43.23;102472.50;5015636;28;20618;-67
2022/10/11 04:16:09;;;;;;;3.08;1.17;;;;;;;21.84;43.28;102479.47;5015444;28;20025;-67
2022/10/11 04:18:34;;;;;;;1.83;1.45;;;;;;;21.82;43.29;102485.91;5017009;28;20072;-67
2022/10/11 04:21:00;;;;;;;2.28;0.95;;;;;;;21.84;43.08;102486.59;5015130;28;20142;-67
2022/10/11 04:23:25;;;;;;;3.33;1.17;;;;;;;21.87;43.24;102480.97;5003456;28;20038;-67
2022/10/11 04:25:51;;;;;;;3.15;1.20;;;;;;;21.81;43.09;102481.59;5016103;28;20044;-68
2022/10/11 04:28:16;;;;;;;2.20;0.90;;;;;;;21.83;43.33;102490.22;4972246;28;20045;-68
2022/10/11 04:30:42;;;;;;;1.55;0.90;;;;;;;21.79;43.19;102492.34;5008590;28;20487;-68
2022/10/11 04:33:10;;;;;;;2.63;1.30;;;;;;;21.79;43.29;102499.47;5011931;28;20068;-68
2022/10/11 04:35:36;;;;;;;1.75;0.77;;;;;;;21.77;42.96;102493.50;5011888;28;20061;-68
2022/10/11 04:38:01;;;;;;;2.38;1.05;;;;;;;21.80;43.10;102503.78;5012555;28;20440;-68
2022/10/11 04:40:27;;;;;;;1.33;0.90;;;;;;;21.79;43.22;102495.00;4993820;28;20042;-68
2022/10/11 04:42:53;;;;;;;3.40;1.20;;;;;;;21.76;43.07;102513.03;4964283;28;20107;-64
2022/10/11 04:45:20;;;;;;;3.58;1.30;;;;;;;21.74;42.95;102505.25;5002492;28;20092;-69
2022/10/11 04:47:47;;;;;;;1.50;1.17;;;;;;;21.76;43.06;102502.44;5012674;28;20498;-66
2022/10/11 04:50:12;;;;;;;3.35;1.20;;;;;;;21.75;43.02;102501.59;5012140;28;21100;-67
2022/10/11 04:52:38;;;;;;;2.25;1.10;;;;;;;21.76;43.21;102497.97;4997490;28;20088;-67
2022/10/11 04:55:04;;;;;;;3.17;0.90;;;;;;;21.69;43.09;102492.41;5013768;28;20050;-67
2022/10/11 04:57:29;;;;;;;1.58;0.82;;;;;;;21.73;43.06;102508.88;5015033;28;20412;-67
2022/10/11 04:59:55;;;;;;;2.75;0.98;;;;;;;21.74;43.08;102509.72;4985849;28;20037;-67
2022/10/11 05:02:20;;;;;;;1.85;1.00;;;;;;;21.71;43.24;102503.69;5008748;28;20514;-67
2022/10/11 05:04:46;;;;;;;1.77;1.02;;;;;;;21.74;43.17;102512.38;5012442;28;20128;-67
2022/10/11 05:07:11;;;;;;;1.60;0.95;;;;;;;21.73;43.40;102514.19;4990834;28;20045;-67
2022/10/11 05:09:37;;;;;;;2.13;1.15;;;;;;;21.73;43.34;102516.84;5013390;28;20041;-67
2022/10/11 05:12:02;;;;;;;2.75;1.15;;;;;;;21.70;43.00;102510.00;5011869;28;20041;-67
2022/10/11 05:14:28;;;;;;;3.72;0.98;;;;;;;21.70;43.51;102515.28;4997520;28;20508;-67
2022/10/11 05:16:54;;;;;;;3.55;1.58;;;;;;;21.71;43.22;102513.47;4997197;28;20050;-67
2022/10/11 05:19:19;;;;;;;1.98;0.70;;;;;;;21.71;42.89;102524.09;5002857;28;20049;-67
2022/10/11 05:21:45;;;;;;;1.85;0.95;;;;;;;21.66;43.25;102523.72;5007599;28;20061;-67
2022/10/11 05:24:10;;;;;;;0.88;0.88;;;;;;;21.72;43.05;102525.75;5009822;28;20233;-67
2022/10/11 05:26:36;;;;;;;2.08;1.00;;;;;;;21.69;42.98;102531.34;5012318;28;20598;-67
2022/10/11 05:29:01;;;;;;;2.25;1.17;;;;;;;21.67;43.34;102536.81;5007963;28;20112;-67
2022/10/11 05:31:27;;;;;;;2.25;1.00;;;;;;;21.69;42.98;102536.66;4998226;28;20046;-69
2022/10/11 05:33:52;;;;;;;2.67;1.02;;;;;;;21.69;42.96;102539.31;4999233;28;20049;-69
2022/10/11 05:36:18;;;;;;;1.95;0.68;;;;;;;21.66;43.35;102539.63;5012868;28;20041;-69
2022/10/11 05:38:43;;;;;;;3.42;1.48;;;;;;;21.69;43.40;102547.25;5013158;28;20048;-69
2022/10/11 05:41:12;;;;;;;2.08;0.80;;;;;;;21.63;43.29;102539.94;5011967;28;20045;-69
2022/10/11 05:43:38;;;;;;;0.82;0.63;;;;;;;21.66;43.37;102542.25;5013781;28;21586;-69
2022/10/11 05:46:04;;;;;;;1.50;1.00;;;;;;;21.66;43.11;102544.91;5013168;28;20038;-69
2022/10/11 05:48:29;;;;;;;0.85;0.70;;;;;;;21.66;43.10;102547.56;4979657;28;20049;-67
2022/10/11 05:51:06;;;;;;;1.27;0.88;;;;;;;21.59;43.17;102544.69;5013085;28;20060;-67
2022/10/11 05:53:32;;;;;;;2.42;1.00;;;;;;;21.63;43.11;102558.47;5010483;28;20567;-67
2022/10/11 05:55:58;;;;;;;1.38;0.85;;;;;;;21.58;43.23;102548.34;5012076;28;20041;-67
2022/10/11 05:58:24;;;;;;;2.92;0.90;;;;;;;21.58;43.38;102550.16;5015351;28;20033;-67
2022/10/11 06:00:50;;;;;;;2.17;0.93;;;;;;;21.62;43.23;102565.59;4999438;28;20041;-67
2022/10/11 06:03:19;;;;;;;2.75;0.75;;;;;;;21.60;43.41;102564.09;5008231;28;20099;-66
2022/10/11 06:05:45;;;;;;;1.70;1.17;;;;;;;21.65;43.03;102569.75;5003535;28;20064;-66
2022/10/11 06:08:10;;;;;;;4.22;1.42;;;;;;;21.56;43.36;102563.56;5018807;28;20120;-66
2022/10/11 06:10:37;;;;;;;2.40;1.13;;;;;;;21.61;43.22;102563.09;5015018;28;20068;-66
2022/10/11 06:13:03;;;;;;;1.27;0.82;;;;;;;21.58;43.12;102561.59;5014858;28;20049;-66
2022/10/11 06:15:29;;;;;;;2.45;1.10;;;;;;;21.61;43.34;102569.25;5019494;28;20033;-66
2022/10/11 06:17:55;;;;;;;5.10;1.27;;;;;;;21.62;43.13;102575.38;5016838;28;20130;-66
2022/10/11 06:20:20;;;;;;;2.15;1.10;;;;;;;21.62;43.08;102583.31;4998527;28;20132;-68
2022/10/11 06:22:46;;;;;;;1.52;0.80;;;;;;;21.58;43.26;102576.66;4997938;28;20422;-68
2022/10/11 06:25:11;;;;;;;1.92;0.95;;;;;;;21.57;43.15;102577.66;5012410;28;20052;-68
2022/10/11 06:27:37;;;;;;;2.67;1.17;;;;;;;21.60;43.09;102580.81;5012677;28;20076;-68
2022/10/11 06:30:04;;;;;;;1.50;1.10;;;;;;;21.68;42.99;102583.56;5011404;28;20037;-68
2022/10/11 06:32:29;;;;;;;6.45;1.15;;;;;;;21.75;43.21;102583.81;5013353;28;20057;-68
2022/10/11 06:34:55;;;;;;;0.90;0.80;;;;;;;21.97;42.83;102593.13;5009186;28;20381;-68
2022/10/11 06:37:20;;;;;;;0.85;0.70;;;;;;;22.02;43.01;102589.03;4983468;28;20065;-70
2022/10/11 06:39:46;;;;;;;1.58;0.95;;;;;;;22.13;42.56;102590.66;5012043;28;20029;-69
2022/10/11 06:42:12;;;;;;;1.25;0.80;;;;;;;22.11;42.81;102594.47;5010142;28;20041;-70
2022/10/11 06:44:38;;;;;;;1.00;0.60;;;;;;;22.13;42.96;102597.78;5010911;28;20061;-69
2022/10/11 06:47:07;;;;;;;2.10;0.82;;;;;;;22.08;42.68;102600.03;5009136;28;22099;-70
2022/10/11 06:49:34;;;;;;;2.60;0.80;;;;;;;22.02;43.22;102609.41;5010253;28;20135;-70
2022/10/11 06:52:00;;;;;;;1.23;0.80;;;;;;;22.06;42.94;102605.50;5003756;28;20049;-70
2022/10/11 06:54:25;;;;;;;2.53;1.08;;;;;;;22.08;43.01;102616.78;4993635;28;20124;-69
2022/10/11 06:56:51;;;;;;;1.08;0.75;;;;;;;22.08;42.70;102614.13;5013802;28;20887;-70
2022/10/11 06:59:17;;;;;;;1.88;0.95;;;;;;;22.12;43.09;102620.84;5007246;28;20053;-70
2022/10/11 07:01:42;;;;;;;1.67;0.93;;;;;;;22.07;43.06;102616.94;5009798;28;20399;-70
2022/10/11 07:04:08;;;;;;;0.68;0.63;;;;;;;22.11;42.69;102621.81;5009744;28;20036;-70
2022/10/11 07:06:39;;;;;;;0.95;0.73;;;;;;;22.13;42.58;102622.50;5008653;28;20042;-69
2022/10/11 07:09:06;;;;;;;2.20;1.02;;;;;;;22.13;42.87;102617.19;4981654;28;20033;-69
2022/10/11 07:11:31;;;;;;;1.77;1.20;;;;;;;22.14;42.66;102626.00;5010536;28;20439;-70
2022/10/11 07:14:00;;;;;;;2.15;1.05;;;;;;;22.15;42.94;102636.44;5012224;28;20048;-70
2022/10/11 07:16:26;;;;;;;1.20;0.88;;;;;;;22.11;42.68;102621.81;5011133;28;20123;-70
2022/10/11 07:18:54;;;;;;;2.15;1.05;;;;;;;22.15;42.62;102627.66;5013448;28;20037;-70
2022/10/11 07:21:20;;;;;;;1.95;0.73;;;;;;;22.14;42.92;102634.78;5013502;28;20506;-69
2022/10/11 07:23:48;;;;;;;1.40;1.00;;;;;;;22.15;42.79;102633.78;5013182;28;20088;-70
2022/10/11 07:26:13;;;;;;;1.67;1.20;;;;;;;22.11;42.94;102643.06;4992203;28;20037;-70
2022/10/11 07:28:39;;;;;;;1.83;0.85;;;;;;;22.15;42.80;102646.22;5016255;28;20052;-70
2022/10/11 07:31:14;;;;;;;1.77;0.90;;;;;;;22.12;42.79;102644.72;5013527;28;20051;-69
2022/10/11 07:33:40;;;;;;;1.73;0.93;;;;;;;22.10;42.96;102637.91;5014660;28;20045;-70
2022/10/11 07:36:06;;;;;;;2.70;1.17;;;;;;;22.14;42.67;102648.06;5015597;28;20030;-70
2022/10/11 07:38:32;;;;;;;2.78;1.17;;;;;;;22.12;42.98;102654.50;5020007;28;20510;-70
2022/10/11 07:40:58;;;;;;;1.33;0.80;;;;;;;22.16;42.57;102650.53;4994261;28;20262;-70
2022/10/11 07:43:24;;;;;;;2.45;1.13;;;;;;;22.11;42.64;102648.34;5018243;28;20572;-73
2022/10/11 07:45:54;;;;;;;3.05;0.93;;;;;;;22.16;42.54;102645.25;5014371;28;20077;-70
2022/10/11 07:48:20;;;;;;;2.17;0.98;;;;;;;22.17;42.68;102647.75;5015767;28;20766;-70
2022/10/11 07:50:46;;;;;;;2.17;1.33;;;;;;;22.20;42.80;102654.56;5026265;28;20021;-70
2022/10/11 07:53:11;;;;;;;2.42;1.20;;;;;;;22.15;42.88;102652.38;5023017;28;20049;-70
2022/10/11 07:55:41;;;;;;;2.05;1.27;;;;;;;22.19;42.65;102658.19;5024327;28;20030;-70
2022/10/11 07:58:11;;;;;;;2.10;0.90;;;;;;;22.18;42.30;102654.72;5001602;28;20392;-74
2022/10/11 08:00:38;;;;;;;2.63;1.42;;;;;;;22.15;42.51;102655.03;5023940;28;20091;-74
2022/10/11 08:03:08;;;;;;;3.30;1.20;;;;;;;22.19;42.80;102655.53;5023380;28;20033;-74
2022/10/11 08:05:36;;;;;;;2.08;1.00;;;;;;;22.19;42.50;102660.84;5013952;28;20368;-74
2022/10/11 08:08:01;;;;;;;1.58;1.00;;;;;;;22.20;42.55;102652.75;5010524;28;20195;-73
2022/10/11 08:10:27;;;;;;;3.20;1.17;;;;;;;22.21;42.67;102670.31;5000683;28;20037;-74
2022/10/11 08:12:53;;;;;;;2.13;0.88;;;;;;;22.23;42.55;102672.81;4985928;28;20025;-74
2022/10/11 08:15:19;;;;;;;2.03;1.02;;;;;;;22.16;42.49;102654.03;5016140;28;20627;-73
2022/10/11 08:17:45;;;;;;;2.95;0.73;;;;;;;22.22;42.32;102664.03;5014088;28;20055;-73
2022/10/11 08:20:10;;;;;;;1.90;1.13;;;;;;;22.25;42.46;102660.25;5019504;28;20041;-73
2022/10/11 08:22:36;;;;;;;1.48;0.88;;;;;;;22.30;42.36;102663.28;5019505;28;20029;-72
2022/10/11 08:25:02;;;;;;;1.83;1.08;;;;;;;22.39;42.23;102661.53;5020636;28;20146;-73
2022/10/11 08:27:27;;;;;;;1.77;1.05;;;;;;;22.43;42.06;102666.38;5016737;28;20033;-73
2022/10/11 08:29:53;;;;;;;1.90;1.13;;;;;;;22.48;42.06;102665.94;4994545;28;20044;-73
2022/10/11 08:32:18;;;;;;;1.70;1.02;;;;;;;22.52;41.81;102675.25;5021924;28;20041;-74
2022/10/11 08:34:44;;;;;;;2.95;1.10;;;;;;;22.56;41.94;102673.97;5016127;28;20471;-73
2022/10/11 08:37:09;;;;;;;2.28;1.20;;;;;;;22.50;41.94;102680.72;5016726;28;20037;-73
2022/10/11 08:39:35;;;;;;;1.52;0.90;;;;;;;22.50;41.76;102680.72;5015369;28;20041;-74
2022/10/11 08:42:22;;;;;;;1.38;0.77;;;;;;;22.51;41.82;102681.56;5020646;28;20041;-74
2022/10/11 08:44:59;;;;;;;1.70;1.02;;;;;;;22.49;41.87;102675.56;4993427;28;20049;-74
2022/10/11 08:47:30;;;;;;;3.17;1.20;;;;;;;22.45;41.95;102675.03;5020090;28;20566;-74
2022/10/11 08:49:58;;;;;;;2.25;1.33;;;;;;;22.52;41.74;102686.72;5018382;28;20021;-73
2022/10/11 08:52:27;;;;;;;2.72;1.33;;;;;;;22.53;41.95;102691.03;5003974;28;20037;-74
2022/10/11 08:55:03;;;;;;;1.42;0.82;;;;;;;22.52;42.24;102693.84;5017069;28;20055;-75
2022/10/11 08:57:33;;;;;;;1.08;0.82;;;;;;;22.51;42.17;102706.28;5017185;28;20038;-73
2022/10/11 09:00:04;;;;;;;2.10;1.10;;;;;;;22.48;41.87;102698.63;5012534;28;20040;-73
2022/10/11 09:03:03;;;;;;;1.27;1.00;;;;;;;22.48;42.13;102698.63;4990350;28;20038;-73
2022/10/11 09:05:34;;;;;;;;;;;;;;;22.51;41.70;102697.50;5019008;28;20340;-73
2022/10/11 09:08:21;;;;;;;2.70;1.38;;;;;;;22.47;42.20;102699.63;5021003;28;19943;-73
2022/10/11 09:11:18;;;;;;;2.40;1.52;;;;;;;22.50;41.79;102698.47;5021731;28;20052;-73
2022/10/11 09:14:02;;;;;;;2.78;1.17;;;;;;;22.46;41.99;102697.13;5003020;28;20057;-73
2022/10/11 09:16:48;;;;;;;1.73;0.75;;;;;;;22.46;42.13;102700.59;5006583;28;20104;-73
2022/10/11 09:19:36;;;;;;;2.22;1.00;;;;;;;22.46;41.91;102697.13;5015164;28;20048;-72
2022/10/11 09:22:21;;;;;;;2.17;1.00;;;;;;;22.46;42.21;102703.25;5008167;28;20191;-73
2022/10/11 09:25:15;;;;;;;2.85;1.25;;;;;;;22.46;42.00;102705.91;5016230;28;20037;-73
2022/10/11 09:28:06;;;;;;;2.30;1.48;;;;;;;22.44;41.86;102705.25;5013604;28;20037;-73
2022/10/11 09:30:32;;;;;;;2.17;1.15;;;;;;;22.45;41.93;102704.25;4974516;28;20112;-73
2022/10/11 09:33:17;;;;;;;2.78;1.25;;;;;;;22.41;42.34;102704.69;4987652;28;20371;-72
2022/10/11 09:35:48;;;;;;;2.33;1.35;;;;;;;22.44;42.26;102704.38;5018626;28;20037;-71
2022/10/11 09:38:26;;;;;;;2.60;1.30;;;;;;;22.36;42.00;102706.97;5013017;28;20041;-71
2022/10/11 09:41:13;;;;;;;1.73;1.13;;;;;;;22.42;41.81;102714.31;5011579;28;20562;-72
2022/10/11 09:43:39;;;;;;;2.33;1.25;;;;;;;22.43;42.23;102715.97;5014789;28;20033;-72
2022/10/11 09:46:19;;;;;;;1.63;0.90;;;;;;;22.46;42.02;102710.38;5012070;28;20160;-72
2022/10/11 09:48:46;;;;;;;1.90;1.10;;;;;;;22.42;42.01;102715.16;4990371;28;20375;-73
2022/10/11 09:51:18;;;;;;;3.00;1.08;;;;;;;22.39;42.01;102711.97;5011795;28;20033;-73
2022/10/11 09:53:51;;;;;;;3.28;1.55;;;;;;;22.37;41.82;102714.78;5011321;28;20479;-73
2022/10/11 09:56:17;;;;;;;3.50;1.25;;;;;;;22.40;42.21;102716.28;5013402;28;20103;-73
2022/10/11 09:58:43;;;;;;;2.13;1.20;;;;;;;22.41;42.06;102724.09;5013999;28;20033;-73
2022/10/11 10:01:22;;;;;;;2.45;0.93;;;;;;;22.38;42.03;102719.09;5010662;28;20038;-74
2022/10/11 10:04:10;;;;;;;3.10;1.30;;;;;;;22.50;41.83;102725.84;5010001;28;20033;-74
2022/10/11 10:06:36;;;;;;;2.33;1.30;;;;;;;22.51;41.98;102724.88;4999634;28;20064;-74
2022/10/11 10:09:23;;;;;;;2.30;1.05;;;;;;;22.54;41.51;102727.22;5009934;28;20037;-73
2022/10/11 10:11:49;;;;;;;2.35;1.30;;;;;;;22.54;41.50;102718.41;5011583;28;20046;-73
2022/10/11 10:14:37;;;;;;;4.00;1.48;;;;;;;22.44;41.71;102722.94;5013619;28;20242;-73
2022/10/11 10:17:13;;;;;;;2.17;1.17;;;;;;;22.48;41.87;102727.84;4997723;28;20033;-73
2022/10/11 10:19:46;;;;;;;4.07;1.42;;;;;;;22.47;41.56;102717.38;5009780;28;20879;-74
2022/10/11 10:22:18;;;;;;;2.95;1.17;;;;;;;22.48;41.99;102724.34;4985282;28;20091;-73
2022/10/11 10:24:46;;;;;;;4.88;1.35;;;;;;;22.48;42.10;102721.69;5001654;28;20033;-73
2022/10/11 10:27:29;;;;;;;1.00;0.88;;;;;;;22.48;41.93;102725.19;5012948;28;20083;-72
2022/10/11 10:30:07;;;;;;;2.25;1.10;;;;;;;22.49;41.78;102728.66;5014835;28;20944;-72
2022/10/11 10:32:44;;;;;;;2.35;1.38;;;;;;;22.47;41.72;102720.84;5010137;28;20062;-72
2022/10/11 10:35:35;;;;;;;2.83;1.13;;;;;;;22.53;42.10;102722.91;5013425;28;20037;-72
2022/10/11 10:38:04;;;;;;;4.03;1.65;;;;;;;22.53;41.80;102725.56;4982934;28;20148;-71
2022/10/11 10:40:51;;;;;;;4.53;1.85;;;;;;;22.52;41.74;102720.41;5011287;28;20037;-72
2022/10/11 10:43:23;;;;;;;2.30;1.25;;;;;;;22.57;41.74;102723.41;4993139;28;20131;-72
2022/10/11 10:46:08;;;;;;;2.53;1.30;;;;;;;22.66;41.50;102724.34;5002901;28;20044;-72
2022/10/11 10:48:58;;;;;;;2.42;1.40;;;;;;;22.61;41.73;102730.09;5013531;28;20476;-72
2022/10/11 10:51:27;;;;;;;;;;;;;;;22.60;41.87;102726.59;5015669;28;20123;-72
2022/10/11 10:54:21;;;;;;;2.30;1.23;;;;;;;22.61;42.00;102730.09;4985072;28;20276;-71
2022/10/11 10:56:54;;;;;;;4.25;1.30;;;;;;;22.61;41.76;102722.13;5013490;28;20776;-73
2022/10/11 10:59:34;;;;;;;2.33;1.30;;;;;;;22.59;41.51;102730.25;5016070;28;20437;-72
2022/10/11 11:02:13;;;;;;;2.45;1.25;;;;;;;22.63;41.74;102719.34;5004585;28;20041;-73
2022/10/11 11:04:46;;;;;;;5.03;2.00;;;;;;;22.63;41.79;102730.78;5012826;28;20393;-71
2022/10/11 11:07:32;;;;;;;2.28;1.60;;;;;;;22.63;41.81;102727.31;5016494;28;20771;-72
2022/10/11 11:10:04;;;;;;;3.70;1.60;;;;;;;22.60;41.59;102713.31;4995757;28;20061;-72
2022/10/11 11:13:04;;;;;;;3.15;1.20;;;;;;;22.60;41.70;102708.00;5005004;28;20044;-72
2022/10/11 11:15:41;;;;;;;2.72;1.23;;;;;;;22.65;41.88;102725.34;5015083;28;20533;-72
2022/10/11 11:18:25;;;;;;;2.50;1.30;;;;;;;22.64;41.56;102719.19;5013068;28;20045;-72
2022/10/11 11:21:10;;;;;;;2.42;1.42;;;;;;;22.61;41.54;102715.00;5015744;28;20042;-72
2022/10/11 11:24:02;;;;;;;1.30;1.02;;;;;;;22.63;41.88;102717.53;5015778;28;20075;-72
2022/10/11 11:26:40;;;;;;;3.63;1.23;;;;;;;22.65;41.75;102714.72;5001288;28;20114;-72
2022/10/11 11:29:42;;;;;;;2.53;1.55;;;;;;;22.66;41.75;102705.75;5014036;28;20061;-72
2022/10/11 11:32:32;;;;;;;3.08;1.30;;;;;;;22.60;41.75;102700.03;5014147;28;20124;-72
2022/10/11 11:35:03;;;;;;;3.03;1.25;;;;;;;22.59;41.91;102697.53;5011074;28;20548;-72
2022/10/11 11:37:34;;;;;;;2.47;1.15;;;;;;;22.61;42.00;102695.56;4998602;28;20546;-72
2022/10/11 11:40:36;;;;;;;3.58;1.40;;;;;;;22.58;42.01;102699.38;4997539;28;20818;-73
2022/10/11 11:43:19;;;;;;;1.92;1.17;;;;;;;22.60;41.93;102701.88;4979491;28;20050;-72